createdAt,value
2022-12-07T00:01:26.212Z,67.19
2022-12-07T00:03:55.966Z,66.95
2022-12-07T00:06:24.574Z,67.06
2022-12-07T00:08:52.418Z,67.31
2022-12-07T00:11:23.933Z,67.60
2022-12-07T00:13:57.596Z,66.89
2022-12-07T00:16:27.909Z,67.51
2022-12-07T00:18:56.763Z,66.69
2022-12-07T00:21:26.941Z,67.25
2022-12-07T00:23:56.808Z,67.00
2022-12-07T00:26:27.157Z,66.71
2022-12-07T00:28:58.618Z,66.57
2022-12-07T00:31:28.479Z,67.07
2022-12-07T00:33:56.360Z,66.78
2022-12-07T00:36:27.254Z,66.56
2022-12-07T00:38:55.677Z,66.71
2022-12-07T00:41:26.677Z,67.01
2022-12-07T00:43:56.529Z,66.55
2022-12-07T00:46:25.851Z,66.62
2022-12-07T00:48:54.833Z,66.67
2022-12-07T00:51:24.349Z,66.88
2022-12-07T00:53:52.983Z,66.38
2022-12-07T00:56:23.325Z,66.54
2022-12-07T00:58:57.600Z,66.28
2022-12-07T01:01:26.920Z,65.84
2022-12-07T01:03:55.633Z,66.64
2022-12-07T01:06:25.149Z,66.18
2022-12-07T01:08:54.144Z,65.84
2022-12-07T01:11:24.133Z,66.06
2022-12-07T01:13:53.671Z,65.78
2022-12-07T01:16:24.716Z,66.63
2022-12-07T01:18:54.638Z,66.39
2022-12-07T01:21:24.424Z,66.88
2022-12-07T01:23:53.393Z,67.14
2022-12-07T01:26:23.308Z,67.44
2022-12-07T01:28:51.197Z,66.88
2022-12-07T01:31:22.938Z,66.66
2022-12-07T01:33:54.497Z,66.82
2022-12-07T01:36:24.612Z,66.96
2022-12-07T01:38:54.197Z,66.73
2022-12-07T01:41:23.624Z,67.15
2022-12-07T01:44:17.343Z,66.89
2022-12-07T01:46:46.486Z,67.49
2022-12-07T01:49:21.276Z,66.89
2022-12-07T01:51:51.202Z,66.56
2022-12-07T01:54:19.980Z,66.76
2022-12-07T01:56:54.356Z,67.25
2022-12-07T01:59:27.537Z,67.17
2022-12-07T02:01:57.715Z,67.03
2022-12-07T02:04:27.196Z,66.94
2022-12-07T02:06:57.084Z,66.48
2022-12-07T02:09:25.264Z,66.96
2022-12-07T02:11:54.377Z,67.19
2022-12-07T02:14:22.655Z,66.73
2022-12-07T02:17:06.140Z,67.32
2022-12-07T02:20:24.760Z,67.56
2022-12-07T02:23:36.461Z,67.30
2022-12-07T02:26:51.944Z,67.53
2022-12-07T02:29:25.420Z,67.07
2022-12-07T02:32:05.066Z,67.41
2022-12-07T02:34:44.775Z,67.43
2022-12-07T02:37:23.960Z,66.87
2022-12-07T02:39:57.970Z,67.03
2022-12-07T02:42:31.755Z,67.05
2022-12-07T02:45:03.646Z,67.61
2022-12-07T02:47:34.473Z,67.40
2022-12-07T02:50:05.832Z,67.17
2022-12-07T02:52:34.160Z,67.86
2022-12-07T02:55:02.404Z,67.72
2022-12-07T02:57:48.388Z,67.31
2022-12-07T03:00:20.889Z,67.43
2022-12-07T03:02:56.177Z,67.53
2022-12-07T03:05:44.231Z,67.55
2022-12-07T03:08:18.402Z,67.53
2022-12-07T03:10:56.645Z,67.31
2022-12-07T03:13:28.356Z,66.72
2022-12-07T03:16:05.004Z,66.83
2022-12-07T03:18:36.964Z,66.64
2022-12-07T03:21:09.171Z,66.71
2022-12-07T03:23:40.387Z,66.03
2022-12-07T03:26:13.766Z,66.65
2022-12-07T03:28:46.624Z,66.39
2022-12-07T03:31:21.172Z,66.70
2022-12-07T03:33:54.563Z,66.77
2022-12-07T03:36:27.576Z,66.43
2022-12-07T03:39:01.173Z,66.40
2022-12-07T03:41:33.024Z,66.36
2022-12-07T03:44:01.921Z,66.69
2022-12-07T03:46:40.484Z,66.68
2022-12-07T03:49:13.639Z,66.17
2022-12-07T03:51:48.141Z,67.04
2022-12-07T03:54:21.958Z,66.50
2022-12-07T03:56:51.670Z,66.17
2022-12-07T03:59:20.279Z,66.94
2022-12-07T04:01:56.100Z,66.47
2022-12-07T04:04:24.633Z,66.58
2022-12-07T04:06:53.020Z,65.96
2022-12-07T04:09:21.261Z,65.87
2022-12-07T04:11:49.840Z,65.60
2022-12-07T04:14:20.870Z,65.47
2022-12-07T04:16:51.342Z,65.67
2022-12-07T04:19:20.386Z,65.38
2022-12-07T04:21:48.975Z,64.99
2022-12-07T04:24:17.842Z,65.29
2022-12-07T04:26:47.067Z,64.75
2022-12-07T04:29:16.084Z,65.17
2022-12-07T04:31:44.988Z,64.97
2022-12-07T04:34:15.504Z,64.78
2022-12-07T04:36:44.334Z,64.60
2022-12-07T04:39:20.085Z,64.81
2022-12-07T04:41:48.468Z,65.30
2022-12-07T04:44:17.084Z,65.26
2022-12-07T04:46:45.672Z,65.26
2022-12-07T04:49:16.220Z,65.33
2022-12-07T04:51:45.241Z,65.77
2022-12-07T04:54:14.038Z,65.99
2022-12-07T04:56:41.962Z,66.11
2022-12-07T04:59:11.450Z,66.24
2022-12-07T05:01:39.454Z,66.68
2022-12-07T05:04:08.385Z,67.21
2022-12-07T05:06:38.090Z,66.19
2022-12-07T05:09:06.163Z,66.95
2022-12-07T05:11:44.604Z,66.53
2022-12-07T05:14:14.888Z,66.12
2022-12-07T05:16:44.195Z,66.86
2022-12-07T05:19:12.772Z,66.74
2022-12-07T05:21:42.331Z,66.50
2022-12-07T05:24:13.387Z,66.09
2022-12-07T05:26:41.392Z,66.56
2022-12-07T05:29:09.653Z,66.41
2022-12-07T05:31:37.910Z,66.52
2022-12-07T05:34:05.697Z,66.64
2022-12-07T05:36:33.479Z,66.65
2022-12-07T05:39:03.201Z,66.82
2022-12-07T05:41:48.460Z,66.81
2022-12-07T05:44:16.825Z,66.84
2022-12-07T05:46:44.787Z,66.72
2022-12-07T05:49:13.181Z,67.42
2022-12-07T05:51:40.942Z,66.95
2022-12-07T05:54:10.298Z,67.53
2022-12-07T05:56:38.675Z,67.18
2022-12-07T05:59:24.913Z,67.07
2022-12-07T06:01:53.907Z,66.94
2022-12-07T06:04:23.060Z,67.54
2022-12-07T06:06:51.663Z,66.96
2022-12-07T06:09:22.230Z,67.06
2022-12-07T06:12:07.860Z,67.21
2022-12-07T06:14:36.108Z,67.18
2022-12-07T06:17:06.886Z,66.94
2022-12-07T06:19:35.165Z,67.22
2022-12-07T06:22:04.212Z,66.85
2022-12-07T06:24:34.440Z,67.23
2022-12-07T06:27:02.293Z,66.91
2022-12-07T06:29:30.686Z,67.14
2022-12-07T06:31:58.932Z,67.48
2022-12-07T06:34:27.827Z,67.04
2022-12-07T06:36:56.160Z,66.61
2022-12-07T06:39:25.961Z,67.03
2022-12-07T06:41:56.218Z,66.81
2022-12-07T06:44:24.653Z,66.93
2022-12-07T06:47:06.789Z,66.52
2022-12-07T06:49:41.921Z,67.22
2022-12-07T06:52:09.679Z,66.98
2022-12-07T06:54:37.569Z,67.33
2022-12-07T06:57:07.129Z,67.13
2022-12-07T06:59:35.438Z,67.51
2022-12-07T07:02:03.349Z,67.61
2022-12-07T07:04:31.116Z,67.27
2022-12-07T07:07:00.318Z,67.66
2022-12-07T07:09:28.491Z,67.38
2022-12-07T07:11:56.634Z,67.76
2022-12-07T07:14:25.864Z,67.61
2022-12-07T07:16:53.861Z,67.72
2022-12-07T07:19:22.204Z,67.65
2022-12-07T07:21:50.535Z,67.69
2022-12-07T07:24:18.393Z,67.65
2022-12-07T07:26:46.256Z,67.00
2022-12-07T07:29:14.750Z,67.42
2022-12-07T07:31:44.023Z,67.27
2022-12-07T07:34:11.873Z,66.90
2022-12-07T07:36:40.317Z,67.06
2022-12-07T07:39:08.130Z,66.36
2022-12-07T07:41:36.564Z,66.61
2022-12-07T07:44:04.486Z,66.59
2022-12-07T07:46:34.716Z,66.63
2022-12-07T07:49:04.067Z,66.79
2022-12-07T07:51:33.780Z,66.66
2022-12-07T07:54:01.568Z,66.44
2022-12-07T07:56:29.878Z,65.98
2022-12-07T07:58:57.763Z,66.38
2022-12-07T08:01:26.370Z,66.10
2022-12-07T08:03:54.302Z,66.65
2022-12-07T08:06:27.693Z,66.57
2022-12-07T08:08:59.118Z,66.28
2022-12-07T08:11:27.901Z,66.58
2022-12-07T08:13:55.801Z,65.81
2022-12-07T08:16:24.582Z,66.08
2022-12-07T08:18:52.416Z,65.93
2022-12-07T08:21:20.745Z,65.99
2022-12-07T08:23:50.049Z,65.84
2022-12-07T08:26:19.446Z,65.74
2022-12-07T08:28:47.397Z,65.89
2022-12-07T08:31:18.349Z,66.30
2022-12-07T08:33:47.358Z,66.47
2022-12-07T08:36:15.665Z,66.76
2022-12-07T08:39:07.967Z,66.64
2022-12-07T08:41:35.426Z,67.04
2022-12-07T08:44:03.494Z,67.66
2022-12-07T08:46:39.017Z,67.49
2022-12-07T08:49:11.805Z,67.80
2022-12-07T08:51:41.139Z,67.62
2022-12-07T08:54:11.405Z,67.83
2022-12-07T08:56:41.852Z,67.41
2022-12-07T08:59:10.267Z,67.37
2022-12-07T09:01:38.230Z,67.57
2022-12-07T09:04:06.694Z,67.56
2022-12-07T09:06:35.535Z,68.08
2022-12-07T09:09:04.583Z,68.04
2022-12-07T09:11:32.464Z,68.08
2022-12-07T09:14:01.736Z,68.54
2022-12-07T09:16:29.612Z,68.44
2022-12-07T09:18:57.617Z,68.70
2022-12-07T09:21:25.445Z,68.26
2022-12-07T09:23:53.308Z,67.95
2022-12-07T09:26:21.142Z,68.65
2022-12-07T09:28:49.142Z,67.99
2022-12-07T09:31:23.743Z,68.14
2022-12-07T09:33:56.260Z,68.20
2022-12-07T09:36:24.263Z,68.16
2022-12-07T09:38:52.142Z,67.92
2022-12-07T09:41:21.185Z,68.51
2022-12-07T09:43:49.385Z,68.57
2022-12-07T09:46:21.448Z,67.92
2022-12-07T09:48:51.466Z,68.12
2022-12-07T09:51:24.016Z,68.38
2022-12-07T09:53:54.284Z,67.66
2022-12-07T09:56:24.145Z,68.51
2022-12-07T09:58:54.013Z,68.74
2022-12-07T10:01:24.220Z,68.12
2022-12-07T10:06:43.787Z,68.19
2022-12-07T10:09:13.068Z,68.26
2022-12-07T10:12:03.169Z,68.24
2022-12-07T10:17:33.412Z,68.92
2022-12-07T10:20:21.800Z,68.54
2022-12-07T10:23:01.259Z,68.51
2022-12-07T10:25:33.039Z,67.83
2022-12-07T10:28:13.750Z,68.26
2022-12-07T10:30:55.437Z,68.19
2022-12-07T10:33:36.673Z,68.23
2022-12-07T10:36:20.629Z,68.00
2022-12-07T10:38:50.671Z,67.98
2022-12-07T10:41:18.557Z,68.49
2022-12-07T10:43:52.595Z,67.99
2022-12-07T10:46:50.532Z,68.05
2022-12-07T10:49:51.225Z,68.23
2022-12-07T10:55:26.049Z,68.72
2022-12-07T10:58:08.930Z,68.41
2022-12-07T11:00:43.848Z,68.67
2022-12-07T11:03:33.165Z,68.64
2022-12-07T11:06:17.594Z,68.64
2022-12-07T11:08:56.844Z,68.21
2022-12-07T11:11:34.887Z,68.54
2022-12-07T11:14:15.029Z,68.62
2022-12-07T11:16:57.404Z,68.21
2022-12-07T11:19:52.073Z,68.58
2022-12-07T11:22:29.817Z,67.68
2022-12-07T11:25:04.849Z,67.62
2022-12-07T11:27:42.892Z,66.91
2022-12-07T11:30:17.104Z,66.89
2022-12-07T11:32:56.025Z,67.53
2022-12-07T11:35:37.894Z,67.40
2022-12-07T11:38:13.190Z,67.30
2022-12-07T11:40:43.071Z,66.90
2022-12-07T11:43:21.214Z,66.77
2022-12-07T11:45:54.495Z,67.03
2022-12-07T11:48:27.230Z,67.53
2022-12-07T11:50:59.192Z,67.10
2022-12-07T11:53:35.601Z,67.49
2022-12-07T11:56:10.476Z,67.58
2022-12-07T11:58:48.458Z,67.78
2022-12-07T12:01:38.743Z,67.47
2022-12-07T12:04:20.049Z,66.86
2022-12-07T12:06:48.307Z,66.99
2022-12-07T12:15:26.033Z,66.69
2022-12-07T12:18:19.523Z,66.71
2022-12-07T12:20:51.552Z,65.78
2022-12-07T12:23:23.526Z,66.29
2022-12-07T12:25:56.582Z,66.70
2022-12-07T12:28:28.774Z,66.41
2022-12-07T12:31:13.779Z,66.52
2022-12-07T12:33:47.306Z,66.05
2022-12-07T12:36:27.854Z,65.97
2022-12-07T12:39:15.813Z,65.40
2022-12-07T12:42:09.578Z,65.53
2022-12-07T12:45:19.125Z,65.27
2022-12-07T12:48:04.951Z,65.34
2022-12-07T12:50:33.969Z,65.65
2022-12-07T12:53:23.763Z,65.35
2022-12-07T12:56:29.509Z,64.86
2022-12-07T12:59:31.123Z,64.84
2022-12-07T13:02:19.121Z,64.86
2022-12-07T13:04:56.542Z,64.70
2022-12-07T13:08:00.477Z,64.87
2022-12-07T13:10:37.544Z,64.50
2022-12-07T13:13:26.932Z,65.01
2022-12-07T13:16:17.008Z,66.19
2022-12-07T13:18:45.178Z,65.21
2022-12-07T13:21:43.860Z,65.76
2022-12-07T13:24:16.072Z,65.58
2022-12-07T13:26:45.945Z,65.03
2022-12-07T13:29:16.692Z,65.13
2022-12-07T13:31:50.368Z,64.96
2022-12-07T13:34:33.661Z,65.22
2022-12-07T13:37:03.556Z,64.92
2022-12-07T13:39:31.612Z,64.88
2022-12-07T13:42:02.946Z,65.02
2022-12-07T13:44:41.965Z,65.07
2022-12-07T13:47:19.364Z,64.82
2022-12-07T13:49:53.840Z,64.52
2022-12-07T13:52:24.386Z,64.61
2022-12-07T13:54:59.260Z,64.55
2022-12-07T13:57:30.050Z,64.49
2022-12-07T13:59:58.929Z,64.62
2022-12-07T14:02:34.457Z,63.94
2022-12-07T14:05:11.646Z,64.92
2022-12-07T14:07:51.474Z,64.35
2022-12-07T14:10:27.460Z,64.94
2022-12-07T14:12:56.134Z,64.54
2022-12-07T14:15:29.311Z,65.11
2022-12-07T14:17:59.789Z,65.18
2022-12-07T14:20:32.581Z,65.47
2022-12-07T14:23:00.434Z,65.35
2022-12-07T14:25:29.124Z,65.38
2022-12-07T14:27:59.538Z,68.36
2022-12-07T14:30:29.630Z,65.86
2022-12-07T14:33:01.537Z,65.38
2022-12-07T14:35:30.162Z,65.08
2022-12-07T14:37:58.111Z,64.83
2022-12-07T14:40:29.000Z,64.48
2022-12-07T14:42:59.757Z,65.03
2022-12-07T14:45:27.594Z,65.18
2022-12-07T14:53:44.037Z,65.39
2022-12-07T14:56:11.937Z,65.17
2022-12-07T14:58:39.657Z,65.34
2022-12-07T15:01:07.635Z,65.25
2022-12-07T15:03:38.414Z,64.48
2022-12-07T15:06:09.082Z,64.93
2022-12-07T15:08:36.940Z,64.77
2022-12-07T15:11:04.763Z,64.82
2022-12-07T15:13:50.349Z,64.92
2022-12-07T15:16:22.106Z,64.90
2022-12-07T15:19:19.143Z,64.84
2022-12-07T15:21:39.748Z,64.74
2022-12-07T15:24:08.282Z,64.97
2022-12-07T15:26:36.109Z,64.64
2022-12-07T15:29:04.381Z,65.32
2022-12-07T15:31:54.701Z,64.74
2022-12-07T15:34:20.409Z,64.57
2022-12-07T15:36:49.812Z,65.09
2022-12-07T15:39:17.662Z,64.50
2022-12-07T15:41:45.785Z,65.22
2022-12-07T15:44:32.801Z,64.68
2022-12-07T15:47:01.243Z,64.96
2022-12-07T15:49:29.614Z,65.22
2022-12-07T15:51:59.413Z,64.40
2022-12-07T15:54:29.462Z,65.03
2022-12-07T15:56:58.286Z,65.14
2022-12-07T15:59:27.616Z,64.89
2022-12-07T16:01:55.652Z,65.09
2022-12-07T16:04:23.756Z,64.74
2022-12-07T16:06:52.252Z,65.20
2022-12-07T16:09:22.148Z,64.57
2022-12-07T16:11:51.140Z,64.87
2022-12-07T16:14:19.018Z,65.27
2022-12-07T16:16:47.089Z,64.91
2022-12-07T16:19:14.964Z,65.31
2022-12-07T16:21:43.397Z,64.83
2022-12-07T16:24:11.473Z,65.28
2022-12-07T16:26:43.728Z,65.15
2022-12-07T16:29:16.879Z,65.40
2022-12-07T16:31:44.928Z,65.75
2022-12-07T16:34:13.115Z,65.18
2022-12-07T16:37:03.322Z,65.88
2022-12-07T16:39:29.846Z,65.88
2022-12-07T16:41:59.202Z,65.68
2022-12-07T16:44:27.270Z,65.64
2022-12-07T16:46:55.360Z,65.68
2022-12-07T16:49:25.320Z,65.87
2022-12-07T16:52:14.943Z,65.76
2022-12-07T16:54:41.761Z,66.03
2022-12-07T16:57:12.499Z,65.68
2022-12-07T16:59:43.289Z,66.02
2022-12-07T17:02:12.884Z,65.52
2022-12-07T17:04:43.576Z,65.67
2022-12-07T17:07:12.145Z,65.27
2022-12-07T17:09:39.984Z,65.65
2022-12-07T17:12:08.228Z,65.64
2022-12-07T17:14:55.326Z,66.36
2022-12-07T17:17:23.587Z,65.57
2022-12-07T17:19:51.415Z,66.27
2022-12-07T17:22:19.510Z,66.27
2022-12-07T17:24:47.483Z,65.88
2022-12-07T17:27:17.995Z,65.94
2022-12-07T17:29:47.671Z,65.97
2022-12-07T17:32:15.992Z,65.86
2022-12-07T17:34:44.042Z,65.68
2022-12-07T17:37:12.385Z,65.65
2022-12-07T17:39:40.445Z,66.28
2022-12-07T17:42:26.016Z,66.37
2022-12-07T17:44:55.377Z,65.85
2022-12-07T17:47:23.198Z,66.09
2022-12-07T17:49:51.796Z,66.06
2022-12-07T17:52:37.520Z,66.24
2022-12-07T17:55:05.869Z,66.41
2022-12-07T17:57:34.632Z,65.85
2022-12-07T18:00:04.410Z,66.59
2022-12-07T18:02:32.910Z,66.28
2022-12-07T18:05:01.580Z,66.56
2022-12-07T18:07:29.673Z,66.83
2022-12-07T18:09:58.081Z,66.51
2022-12-07T18:12:26.205Z,66.65
2022-12-07T18:14:54.454Z,66.63
2022-12-07T18:17:23.947Z,66.57
2022-12-07T18:19:51.841Z,66.91
2022-12-07T18:22:19.876Z,66.75
2022-12-07T18:24:47.670Z,66.95
2022-12-07T18:27:15.511Z,66.74
2022-12-07T18:29:43.507Z,66.25
2022-12-07T18:32:11.504Z,67.13
2022-12-07T18:34:41.596Z,66.55
2022-12-07T18:37:09.467Z,66.81
2022-12-07T18:39:37.348Z,66.79
2022-12-07T18:42:05.571Z,66.59
2022-12-07T18:44:33.686Z,66.76
2022-12-07T18:47:01.652Z,66.80
2022-12-07T18:49:29.822Z,67.27
2022-12-07T18:51:59.154Z,66.52
2022-12-07T18:54:27.304Z,67.00
2022-12-07T18:56:55.533Z,67.75
2022-12-07T18:59:41.241Z,67.50
2022-12-07T19:02:09.167Z,67.38
2022-12-07T19:04:37.127Z,67.00
2022-12-07T19:07:06.370Z,67.25
2022-12-07T19:09:34.325Z,67.13
2022-12-07T19:12:04.372Z,67.53
2022-12-07T19:14:34.337Z,67.20
2022-12-07T19:17:04.109Z,66.76
2022-12-07T19:19:33.807Z,67.81
2022-12-07T19:22:01.985Z,66.97
2022-12-07T19:24:32.405Z,67.04
2022-12-07T19:27:01.009Z,67.54
2022-12-07T19:29:31.623Z,67.28
2022-12-07T19:31:59.873Z,67.19
2022-12-07T19:34:28.481Z,67.41
2022-12-07T19:36:56.305Z,67.37
2022-12-07T19:39:24.834Z,67.51
2022-12-07T19:41:54.053Z,67.11
2022-12-07T19:44:25.778Z,67.55
2022-12-07T19:46:58.525Z,66.95
2022-12-07T19:49:34.830Z,67.29
2022-12-07T19:52:08.104Z,66.86
2022-12-07T19:54:37.178Z,67.00
2022-12-07T19:57:07.429Z,67.43
2022-12-07T19:59:35.602Z,66.70
2022-12-07T20:02:04.066Z,66.75
2022-12-07T20:04:35.802Z,66.46
2022-12-07T20:07:05.751Z,66.59
2022-12-07T20:09:33.752Z,66.57
2022-12-07T20:12:20.732Z,66.27
2022-12-07T20:14:50.041Z,66.61
2022-12-07T20:17:18.232Z,66.36
2022-12-07T20:19:46.035Z,67.12
2022-12-07T20:22:14.294Z,67.09
2022-12-07T20:24:42.124Z,66.60
2022-12-07T20:27:10.192Z,67.12
2022-12-07T20:29:38.057Z,66.45
2022-12-07T20:32:08.148Z,66.53
2022-12-07T20:34:36.026Z,66.21
2022-12-07T20:37:03.967Z,66.44
2022-12-07T20:39:32.194Z,66.70
2022-12-07T20:42:17.641Z,66.89
2022-12-07T20:44:45.802Z,66.30
2022-12-07T20:47:15.152Z,67.03
2022-12-07T20:49:43.095Z,66.66
2022-12-07T20:52:11.368Z,66.83
2022-12-07T20:54:39.258Z,66.97
2022-12-07T20:57:07.535Z,66.74
2022-12-07T20:59:39.785Z,66.39
2022-12-07T21:02:12.365Z,66.97
2022-12-07T21:04:42.389Z,66.48
2022-12-07T21:07:10.847Z,66.28
2022-12-07T21:09:38.813Z,66.38
2022-12-07T21:12:11.000Z,66.92
2022-12-07T21:14:41.268Z,66.76
2022-12-07T21:17:09.274Z,66.80
2022-12-07T21:19:37.408Z,66.53
2022-12-07T21:22:07.201Z,66.28
2022-12-07T21:24:35.079Z,66.78
2022-12-07T21:27:03.558Z,66.59
2022-12-07T21:29:43.230Z,66.40
2022-12-07T21:32:13.322Z,66.36
2022-12-07T21:34:41.308Z,66.92
2022-12-07T21:37:11.579Z,66.66
2022-12-07T21:39:39.452Z,66.79
2022-12-07T21:42:07.751Z,66.55
2022-12-07T21:44:36.126Z,66.71
2022-12-07T21:47:04.031Z,66.95
2022-12-07T21:49:35.049Z,66.83
2022-12-07T21:52:02.891Z,66.53
2022-12-07T21:54:33.035Z,66.68
2022-12-07T21:57:00.988Z,66.49
2022-12-07T21:59:28.960Z,66.60
2022-12-07T22:01:57.079Z,67.23
2022-12-07T22:04:26.725Z,67.03
2022-12-07T22:06:57.417Z,67.43
2022-12-07T22:09:27.270Z,66.49
2022-12-07T22:11:57.073Z,67.06
2022-12-07T22:14:42.437Z,67.01
2022-12-07T22:17:10.638Z,66.73
2022-12-07T22:19:38.432Z,66.80
2022-12-07T22:22:06.661Z,66.74
2022-12-07T22:24:34.439Z,66.60
2022-12-07T22:27:04.352Z,67.00
2022-12-07T22:29:32.159Z,66.98
2022-12-07T22:32:09.248Z,67.03
2022-12-07T22:34:46.536Z,66.40
2022-12-07T22:37:14.418Z,67.03
2022-12-07T22:39:42.275Z,66.91
2022-12-07T22:42:11.556Z,66.57
2022-12-07T22:44:41.531Z,67.50
2022-12-07T22:47:09.462Z,66.91
2022-12-07T22:49:37.858Z,67.25
2022-12-07T22:52:05.913Z,67.29
2022-12-07T22:54:34.412Z,67.25
2022-12-07T22:57:02.276Z,66.80
2022-12-07T22:59:31.482Z,67.29
2022-12-07T23:01:59.781Z,67.59
2022-12-07T23:04:27.684Z,67.19
2022-12-07T23:06:59.479Z,67.21
2022-12-07T23:09:27.418Z,67.91
2022-12-07T23:12:13.492Z,67.82
2022-12-07T23:14:42.809Z,67.68
2022-12-07T23:17:11.228Z,67.39
2022-12-07T23:19:39.096Z,67.97
2022-12-07T23:22:07.168Z,68.08
2022-12-07T23:24:34.981Z,67.87
2022-12-07T23:27:02.918Z,67.65
2022-12-07T23:29:31.191Z,68.38
2022-12-07T23:32:00.486Z,67.90
2022-12-07T23:34:28.648Z,67.57
2022-12-07T23:36:56.397Z,67.49
2022-12-07T23:39:24.586Z,67.93
2022-12-07T23:41:52.652Z,67.60
2022-12-07T23:44:20.752Z,67.33
2022-12-07T23:46:48.651Z,68.04
2022-12-07T23:49:19.495Z,68.03
2022-12-07T23:51:47.273Z,67.34
2022-12-07T23:54:15.166Z,67.48
2022-12-07T23:56:43.839Z,67.27
2022-12-07T23:59:13.439Z,67.09
